Time;durP1;ratioP1;P1;durP2;ratioP2;P2;SDS_P1;SDS_P2;PMS_P1;PMS_P2;Temp;Humidity;BMP_temperature;BMP_pressure;BME280_temperature;BME280_humidity;BME280_pressure;Samples;Min_cycle;Max_cycle;Signal;HPM_P1;HPM_P2
2023/04/29 00:03:16;;;;;;;56.72;35.88;;;;;;;9.27;100.00;101183.06;10521691;28;20047;-74
2023/04/29 00:08:16;;;;;;;63.83;36.80;;;;;;;9.25;100.00;101189.91;10508618;28;20082;-74
2023/04/29 00:13:17;;;;;;;68.03;38.70;;;;;;;9.18;100.00;101188.66;10504014;28;20052;-74
2023/04/29 00:18:17;;;;;;;73.65;42.88;;;;;;;9.18;100.00;101191.28;10519980;28;20079;-75
2023/04/29 00:23:18;;;;;;;84.35;43.58;;;;;;;9.13;100.00;101191.81;10516210;28;20373;-74
2023/04/29 00:28:19;;;;;;;82.18;46.58;;;;;;;9.09;100.00;101199.44;10522395;28;20059;-74
2023/04/29 00:33:20;;;;;;;97.80;54.80;;;;;;;9.04;100.00;101205.22;10518752;28;20937;-73
2023/04/29 00:38:20;;;;;;;80.15;50.53;;;;;;;9.01;100.00;101208.53;10521274;28;20118;-74
2023/04/29 00:43:21;;;;;;;105.68;51.22;;;;;;;9.00;100.00;101216.31;10521859;28;20068;-74
2023/04/29 00:48:21;;;;;;;102.13;51.20;;;;;;;8.96;100.00;101216.13;10504053;28;20552;-74
2023/04/29 00:53:22;;;;;;;89.10;53.38;;;;;;;8.96;100.00;101221.34;10521006;28;20054;-75
2023/04/29 00:58:29;;;;;;;85.07;48.53;;;;;;;8.91;100.00;101225.38;10504933;28;20390;-75
2023/04/29 01:03:29;;;;;;;85.35;52.42;;;;;;;8.83;100.00;101224.03;10494414;28;20050;-74
2023/04/29 01:08:37;;;;;;;79.07;46.60;;;;;;;8.80;100.00;101227.34;10522852;28;20046;-74
2023/04/29 01:13:49;;;;;;;77.95;47.25;;;;;;;8.77;100.00;101227.16;10489367;28;20037;-73
2023/04/29 01:18:54;;;;;;;82.65;49.15;;;;;;;8.77;100.00;101236.69;10520976;28;20060;-73
2023/04/29 01:23:55;;;;;;;84.78;50.03;;;;;;;8.72;100.00;101239.00;10462488;28;20063;-74
2023/04/29 01:29:13;;;;;;;88.50;49.80;;;;;;;8.70;100.00;101245.84;10487835;28;20056;-74
2023/04/29 01:34:21;;;;;;;92.15;48.50;;;;;;;8.67;100.00;101253.50;10525906;28;20541;-74
2023/04/29 01:39:33;;;;;;;82.78;46.97;;;;;;;8.56;100.00;101258.06;10526041;28;20044;-74
2023/04/29 01:44:34;;;;;;;84.82;42.55;;;;;;;8.45;100.00;101262.56;10516370;28;20092;-73
2023/04/29 01:49:35;;;;;;;86.10;46.97;;;;;;;8.35;100.00;101268.00;10524612;28;20044;-74
2023/04/29 01:54:35;;;;;;;79.63;44.85;;;;;;;8.34;100.00;101276.63;10524577;28;20036;-74
2023/04/29 01:59:36;;;;;;;80.45;41.47;;;;;;;8.26;100.00;101278.78;10527778;28;20178;-74
2023/04/29 02:04:36;;;;;;;80.70;41.75;;;;;;;8.15;100.00;101275.47;10502035;28;20483;-74
2023/04/29 02:09:37;;;;;;;77.05;42.85;;;;;;;8.03;100.00;101280.81;10495501;28;20425;-74
2023/04/29 02:14:37;;;;;;;71.13;39.00;;;;;;;8.02;100.00;101292.03;10522966;28;20063;-73
2023/04/29 02:19:38;;;;;;;58.28;32.70;;;;;;;7.99;100.00;101286.63;10515888;28;20044;-74
2023/04/29 02:24:38;;;;;;;60.38;33.78;;;;;;;7.97;100.00;101295.13;10524808;28;20126;-74
2023/04/29 02:29:39;;;;;;;51.45;31.00;;;;;;;7.96;100.00;101306.34;10527386;28;20487;-74
2023/04/29 02:34:39;;;;;;;56.10;32.95;;;;;;;7.93;100.00;101314.91;10502595;28;20194;-73
2023/04/29 02:39:40;;;;;;;52.42;31.15;;;;;;;7.86;100.00;101320.50;10520945;28;20127;-74
2023/04/29 02:44:41;;;;;;;54.40;33.10;;;;;;;7.81;100.00;101316.69;10524915;28;20043;-73
2023/04/29 02:49:42;;;;;;;38.28;21.98;;;;;;;7.80;100.00;101326.19;10526243;28;20071;-74
2023/04/29 02:54:42;;;;;;;53.03;32.10;;;;;;;7.78;100.00;101336.53;10527248;28;20128;-74
2023/04/29 02:59:43;;;;;;;51.97;34.58;;;;;;;7.81;100.00;101330.59;10483828;28;20036;-74
2023/04/29 03:04:43;;;;;;;50.70;32.13;;;;;;;7.78;100.00;101340.84;10525648;28;20107;-74
2023/04/29 03:09:44;;;;;;;57.33;34.63;;;;;;;7.78;100.00;101340.84;10525173;28;20083;-74
2023/04/29 03:14:45;;;;;;;49.03;31.60;;;;;;;7.80;100.00;101344.44;10525010;28;20068;-74
2023/04/29 03:19:45;;;;;;;57.90;31.88;;;;;;;7.81;100.00;101356.66;10507970;28;20090;-73
2023/04/29 03:24:46;;;;;;;54.00;31.65;;;;;;;7.77;100.00;101352.06;10522737;28;20060;-73
2023/04/29 03:29:46;;;;;;;56.58;33.08;;;;;;;7.84;100.00;101354.25;10525142;28;20071;-75
2023/04/29 03:34:48;;;;;;;69.97;34.92;;;;;;;7.82;100.00;101360.19;10506909;28;20222;-74
2023/04/29 03:39:48;;;;;;;56.92;34.92;;;;;;;7.80;100.00;101373.09;10510821;28;20399;-74
2023/04/29 03:44:51;;;;;;;63.28;35.80;;;;;;;7.81;100.00;101366.19;10521536;28;20123;-73
2023/04/29 03:49:52;;;;;;;62.45;35.55;;;;;;;7.77;100.00;101367.69;10521895;28;20063;-73
2023/04/29 03:54:52;;;;;;;62.50;37.95;;;;;;;7.72;100.00;101379.50;10522732;28;20127;-73
2023/04/29 03:59:53;;;;;;;64.47;36.72;;;;;;;7.63;100.00;101371.97;10522416;28;20147;-74
2023/04/29 04:04:54;;;;;;;64.30;36.28;;;;;;;7.56;100.00;101382.78;10520006;28;20060;-73
2023/04/29 04:09:54;;;;;;;60.67;38.53;;;;;;;7.48;100.00;101385.78;10522713;28;20498;-73
2023/04/29 04:14:55;;;;;;;65.50;38.33;;;;;;;7.46;100.00;101389.06;10521487;28;20119;-74
2023/04/29 04:19:56;;;;;;;70.50;41.77;;;;;;;7.42;100.00;101394.84;10523714;28;20059;-73
2023/04/29 04:24:56;;;;;;;70.13;37.55;;;;;;;7.44;100.00;101401.06;10522538;28;20044;-73
2023/04/29 04:29:57;;;;;;;69.72;43.75;;;;;;;7.48;100.00;101408.28;10514610;28;20072;-74
2023/04/29 04:34:57;;;;;;;74.85;39.05;;;;;;;7.47;100.00;101412.63;10512152;28;20134;-74
2023/04/29 04:39:58;;;;;;;73.40;45.30;;;;;;;7.49;100.00;101421.44;10503751;28;20391;-75
2023/04/29 04:44:58;;;;;;;74.32;39.38;;;;;;;7.51;100.00;101428.47;10514841;28;20122;-74
2023/04/29 04:49:59;;;;;;;68.18;42.15;;;;;;;7.55;100.00;101428.75;10499035;28;20131;-75
2023/04/29 04:54:59;;;;;;;70.50;42.63;;;;;;;7.58;100.00;101443.72;10496974;28;20046;-74
2023/04/29 05:00:01;;;;;;;70.18;41.42;;;;;;;7.56;100.00;101446.19;10501664;28;20282;-75
2023/04/29 05:05:01;;;;;;;68.45;39.88;;;;;;;7.59;100.00;101451.63;10521054;28;20094;-75
2023/04/29 05:10:02;;;;;;;58.40;34.28;;;;;;;7.65;100.00;101464.19;10518875;28;20036;-73
2023/04/29 05:15:03;;;;;;;58.00;39.83;;;;;;;7.63;100.00;101460.56;10523962;28;20044;-74
2023/04/29 05:20:07;;;;;;;53.92;31.90;;;;;;;7.62;100.00;101457.03;10506302;28;20036;-75
2023/04/29 05:25:08;;;;;;;55.20;33.70;;;;;;;7.64;100.00;101467.59;10522758;28;20177;-74
2023/04/29 05:30:09;;;;;;;66.53;34.88;;;;;;;7.66;100.00;101471.19;10525463;28;20041;-74
2023/04/29 05:35:10;;;;;;;59.30;36.75;;;;;;;7.70;100.00;101477.50;10498055;28;20494;-74
2023/04/29 05:40:11;;;;;;;48.78;29.02;;;;;;;7.72;100.00;101488.94;10525890;28;20740;-75
2023/04/29 05:45:11;;;;;;;58.17;32.10;;;;;;;7.68;100.00;101490.44;10512551;28;20046;-75
2023/04/29 05:50:12;;;;;;;52.00;29.48;;;;;;;7.71;100.00;101493.25;10511103;28;20032;-75
2023/04/29 05:55:12;;;;;;;61.67;34.15;;;;;;;7.72;100.00;101501.97;10526786;28;20067;-75
2023/04/29 06:00:13;;;;;;;94.32;54.08;;;;;;;7.70;100.00;101511.38;10526622;28;20566;-75
2023/04/29 06:05:14;;;;;;;67.85;40.25;;;;;;;7.69;100.00;101520.91;10511315;28;20059;-75
2023/04/29 06:10:14;;;;;;;51.10;36.75;;;;;;;7.71;100.00;101527.13;10522243;28;20058;-75
2023/04/29 06:15:15;;;;;;;60.10;34.13;;;;;;;7.76;100.00;101538.78;10528245;28;20044;-75
2023/04/29 06:20:15;;;;;;;52.92;33.05;;;;;;;7.81;100.00;101538.19;10527166;28;20043;-76
2023/04/29 06:25:16;;;;;;;62.28;45.20;;;;;;;7.83;100.00;101536.59;10517314;28;20088;-76
2023/04/29 06:30:16;;;;;;;53.53;30.75;;;;;;;7.90;100.00;101547.53;10528109;28;20043;-75
2023/04/29 06:35:17;;;;;;;60.95;33.15;;;;;;;7.95;100.00;101555.69;10527834;28;20529;-75
2023/04/29 06:40:17;;;;;;;49.92;32.50;;;;;;;8.02;100.00;101562.22;10528644;28;20032;-75
2023/04/29 06:45:18;;;;;;;50.28;30.02;;;;;;;8.02;100.00;101570.06;10525127;28;20116;-76
2023/04/29 06:50:19;;;;;;;43.55;29.40;;;;;;;8.05;100.00;101570.25;10525599;28;20115;-75
2023/04/29 06:55:19;;;;;;;40.42;28.17;;;;;;;8.04;100.00;101577.19;10525923;28;20509;-75
2023/04/29 07:00:21;;;;;;;44.50;27.92;;;;;;;8.07;100.00;101577.41;10525715;28;20161;-75
2023/04/29 07:05:22;;;;;;;47.72;25.85;;;;;;;7.99;100.00;101586.41;10514255;28;20044;-75
2023/04/29 07:10:22;;;;;;;45.53;29.77;;;;;;;8.05;100.00;101597.25;10504381;28;20400;-75
2023/04/29 07:15:23;;;;;;;47.28;25.98;;;;;;;8.20;100.00;101597.41;10497167;28;20063;-74
2023/04/29 07:20:24;;;;;;;48.30;26.58;;;;;;;8.33;100.00;101611.28;10522456;28;20131;-75
2023/04/29 07:25:26;;;;;;;41.08;27.08;;;;;;;8.47;100.00;101607.03;10527518;28;20067;-75
2023/04/29 07:30:27;;;;;;;46.13;26.30;;;;;;;8.55;100.00;101611.09;10503393;28;20036;-76
2023/04/29 07:35:27;;;;;;;37.50;24.10;;;;;;;8.59;100.00;101626.16;10526336;28;20046;-76
2023/04/29 07:40:28;;;;;;;42.33;25.30;;;;;;;8.55;100.00;101623.22;10526181;28;20123;-75
2023/04/29 07:45:28;;;;;;;42.80;23.70;;;;;;;8.73;100.00;101634.00;10508537;28;20511;-75
2023/04/29 07:50:29;;;;;;;34.40;22.27;;;;;;;8.78;100.00;101648.28;10526388;28;20043;-75
2023/04/29 07:55:29;;;;;;;32.35;22.08;;;;;;;8.94;100.00;101634.53;10523756;28;20075;-76
2023/04/29 08:00:30;;;;;;;33.47;19.75;;;;;;;8.91;100.00;101636.94;10493061;28;20074;-75
2023/04/29 08:05:30;;;;;;;33.75;18.45;;;;;;;9.05;100.00;101638.75;10506415;28;20119;-75
2023/04/29 08:10:31;;;;;;;28.65;16.60;;;;;;;9.44;100.00;101638.66;10485360;28;20086;-75
2023/04/29 08:15:32;;;;;;;36.50;22.13;;;;;;;9.73;100.00;101637.00;10483888;28;20063;-75
2023/04/29 08:20:32;;;;;;;27.90;16.45;;;;;;;10.02;100.00;101635.31;10482460;28;20043;-74
2023/04/29 08:25:33;;;;;;;29.50;16.63;;;;;;;10.86;100.00;101636.00;10490499;28;20048;-76
2023/04/29 08:30:39;;;;;;;25.40;15.18;;;;;;;12.34;100.00;101631.97;10501176;28;20135;-75
2023/04/29 08:35:40;;;;;;;22.23;13.75;;;;;;;13.29;100.00;101633.16;10513086;28;20036;-74
2023/04/29 08:40:44;;;;;;;24.50;14.57;;;;;;;13.02;100.00;101644.13;10512839;28;20115;-75
2023/04/29 08:45:45;;;;;;;22.17;13.45;;;;;;;12.34;100.00;101642.47;10511520;28;20058;-74
2023/04/29 08:50:46;;;;;;;21.80;13.70;;;;;;;11.89;100.00;101655.78;10487586;28;20124;-74
2023/04/29 08:55:52;;;;;;;25.67;14.70;;;;;;;11.56;100.00;101662.66;10530083;28;20055;-74
2023/04/29 09:00:53;;;;;;;25.73;16.60;;;;;;;11.24;100.00;101667.91;10521322;28;20483;-74
2023/04/29 09:05:54;;;;;;;22.48;14.63;;;;;;;11.40;100.00;101668.78;10512104;28;20036;-75
2023/04/29 09:10:54;;;;;;;23.63;14.75;;;;;;;11.25;100.00;101669.69;10520560;28;20036;-74
2023/04/29 09:15:55;;;;;;;21.33;14.52;;;;;;;11.13;100.00;101672.50;10509757;28;20495;-75
2023/04/29 09:20:56;;;;;;;20.88;15.07;;;;;;;11.27;100.00;101682.88;10527449;28;20040;-74
2023/04/29 09:25:56;;;;;;;28.13;15.68;;;;;;;11.35;100.00;101672.84;10510704;28;20044;-74
2023/04/29 09:30:57;;;;;;;22.88;16.13;;;;;;;11.16;100.00;101688.41;10512429;28;20050;-75
2023/04/29 09:35:58;;;;;;;24.77;16.00;;;;;;;11.44;100.00;101694.34;10530250;28;20555;-75
2023/04/29 09:40:58;;;;;;;26.75;16.52;;;;;;;11.13;100.00;101692.56;10529423;28;20042;-75
2023/04/29 09:45:59;;;;;;;24.63;17.83;;;;;;;11.31;100.00;101704.13;10527350;28;20079;-75
2023/04/29 09:51:03;;;;;;;24.15;15.85;;;;;;;11.34;100.00;101713.88;10525696;28;20410;-75
2023/04/29 09:56:04;;;;;;;27.08;16.15;;;;;;;11.18;100.00;101711.16;10528058;28;20395;-74
2023/04/29 10:01:05;;;;;;;20.90;15.43;;;;;;;10.87;100.00;101711.16;10512038;28;20122;-75
2023/04/29 10:06:06;;;;;;;24.13;16.40;;;;;;;10.90;100.00;101718.31;10485319;28;20041;-75
2023/04/29 10:11:06;;;;;;;26.55;17.13;;;;;;;11.26;100.00;101723.00;10522192;28;20039;-75
2023/04/29 10:16:14;;;;;;;24.70;17.00;;;;;;;11.47;100.00;101723.34;10513149;28;20058;-75
2023/04/29 10:21:15;;;;;;;29.95;16.45;;;;;;;11.69;100.00;101725.47;10510926;28;20060;-74
2023/04/29 10:26:16;;;;;;;31.10;17.13;;;;;;;11.82;100.00;101724.47;10510160;28;20044;-74
2023/04/29 10:31:16;;;;;;;21.05;15.00;;;;;;;12.33;100.00;101721.13;10508953;28;20497;-75
2023/04/29 10:36:17;;;;;;;27.02;15.80;;;;;;;12.83;100.00;101721.13;10526586;28;20028;-75
2023/04/29 10:41:24;;;;;;;24.63;14.50;;;;;;;13.30;100.00;101722.66;10526991;28;20051;-75
2023/04/29 10:46:25;;;;;;;22.75;16.67;;;;;;;13.69;100.00;101735.06;10510536;28;20503;-75
2023/04/29 10:51:38;;;;;;;24.60;16.17;;;;;;;13.49;100.00;101732.38;10526523;28;20067;-75
2023/04/29 10:56:52;;;;;;;25.33;15.30;;;;;;;12.99;100.00;101736.84;10515380;28;20042;-75
2023/04/29 11:01:53;;;;;;;21.58;15.18;;;;;;;13.00;100.00;101735.13;10509003;28;20483;-75
2023/04/29 11:06:55;;;;;;;22.52;17.42;;;;;;;13.25;100.00;101742.53;10507848;28;20031;-75
2023/04/29 11:12:02;;;;;;;21.20;17.05;;;;;;;13.61;100.00;101741.69;10524894;28;20028;-75
2023/04/29 11:17:06;;;;;;;19.80;13.57;;;;;;;13.86;100.00;101743.81;10526356;28;20096;-75
2023/04/29 11:22:16;;;;;;;25.45;17.50;;;;;;;14.22;100.00;101732.28;10526247;28;20475;-75
2023/04/29 11:27:18;;;;;;;19.45;13.88;;;;;;;14.53;100.00;101733.69;10523504;28;20426;-75
2023/04/29 11:32:21;;;;;;;21.05;15.18;;;;;;;14.74;100.00;101736.44;10507830;28;20032;-75
2023/04/29 11:37:24;;;;;;;23.05;14.13;;;;;;;15.19;100.00;101738.38;10515445;28;20044;-77
2023/04/29 11:42:24;;;;;;;19.30;14.13;;;;;;;15.69;100.00;101740.41;10482733;28;20033;-77
2023/04/29 11:47:29;;;;;;;22.50;14.32;;;;;;;15.76;100.00;101741.56;10466367;28;20488;-77
2023/04/29 11:52:29;;;;;;;18.63;12.85;;;;;;;15.94;100.00;101729.16;10483629;28;20032;-78
2023/04/29 11:57:30;;;;;;;18.40;11.50;;;;;;;16.72;100.00;101732.03;10525479;28;20036;-78
2023/04/29 12:02:31;;;;;;;15.13;12.68;;;;;;;18.04;100.00;101732.06;10524194;28;20478;-77
2023/04/29 12:07:32;;;;;;;16.95;11.75;;;;;;;19.09;93.05;101735.91;10507372;28;20392;-77
2023/04/29 12:12:35;;;;;;;19.48;11.05;;;;;;;18.76;85.83;101734.13;10526150;28;20059;-78
2023/04/29 12:17:35;;;;;;;19.52;9.98;;;;;;;17.91;92.62;101733.38;10506967;28;20047;-77
2023/04/29 12:22:36;;;;;;;15.43;10.60;;;;;;;17.18;91.33;101743.34;10504510;28;20396;-77
2023/04/29 12:27:38;;;;;;;15.60;10.80;;;;;;;16.78;97.34;101732.25;10506587;28;20127;-77
2023/04/29 12:32:39;;;;;;;15.90;10.35;;;;;;;17.53;96.11;101737.47;10523567;28;20032;-77
2023/04/29 12:37:40;;;;;;;12.85;9.18;;;;;;;17.10;99.82;101739.53;10506741;28;20028;-77
2023/04/29 12:42:40;;;;;;;14.27;8.60;;;;;;;16.37;98.42;101734.28;10523753;28;20067;-77
2023/04/29 12:47:41;;;;;;;12.77;9.13;;;;;;;15.34;100.00;101730.22;10524097;28;20071;-77
2023/04/29 12:52:41;;;;;;;15.02;10.85;;;;;;;14.42;100.00;101734.94;10500001;28;20551;-77
2023/04/29 12:57:42;;;;;;;12.25;9.20;;;;;;;13.72;100.00;101744.88;10440134;28;20120;-77
2023/04/29 13:02:42;;;;;;;11.48;8.48;;;;;;;13.42;100.00;101755.66;10424241;28;20128;-77
2023/04/29 13:07:43;;;;;;;15.40;9.15;;;;;;;13.16;100.00;101752.59;10494536;28;20123;-77
2023/04/29 13:12:43;;;;;;;12.95;9.88;;;;;;;13.31;100.00;101762.97;10520965;28;20042;-77
2023/04/29 13:17:44;;;;;;;15.15;11.07;;;;;;;13.65;100.00;101760.34;10484429;28;20032;-77
2023/04/29 13:22:45;;;;;;;12.23;7.82;;;;;;;13.92;100.00;101754.63;10525935;28;20162;-77
2023/04/29 13:27:45;;;;;;;14.00;9.70;;;;;;;14.30;100.00;101751.97;10531534;28;20040;-78
2023/04/29 13:32:46;;;;;;;15.82;10.13;;;;;;;14.89;100.00;101757.28;10531192;28;20051;-77
2023/04/29 13:37:47;;;;;;;16.60;11.40;;;;;;;15.04;100.00;101751.81;10512704;28;20055;-77
2023/04/29 13:42:48;;;;;;;15.07;10.35;;;;;;;15.17;100.00;101745.31;10523655;28;20054;-76
2023/04/29 13:47:49;;;;;;;17.80;11.13;;;;;;;15.27;100.00;101758.06;10507923;28;20047;-76
2023/04/29 13:52:49;;;;;;;9.90;8.32;;;;;;;15.38;100.00;101754.97;10484821;28;20044;-75
2023/04/29 13:57:52;;;;;;;15.43;10.43;;;;;;;15.31;100.00;101752.91;10493882;28;20087;-75
2023/04/29 14:02:52;;;;;;;;;;;;;;;15.03;100.00;101757.00;10527420;28;20492;-74
2023/04/29 14:07:53;;;;;;;17.92;10.73;;;;;;;14.82;100.00;101766.69;10528643;28;19920;-74
2023/04/29 14:12:53;;;;;;;18.00;11.45;;;;;;;15.15;100.00;101765.44;10523873;28;20055;-76
2023/04/29 14:17:54;;;;;;;19.60;11.32;;;;;;;15.36;100.00;101772.47;10529352;28;20527;-75
2023/04/29 14:22:55;;;;;;;14.40;9.80;;;;;;;14.83;100.00;101770.19;10511648;28;20463;-75
2023/04/29 14:27:55;;;;;;;11.98;9.60;;;;;;;14.78;100.00;101777.91;10506109;28;20035;-75
2023/04/29 14:32:56;;;;;;;13.30;10.32;;;;;;;14.76;100.00;101783.94;10527774;28;20365;-76
2023/04/29 14:37:57;;;;;;;13.27;9.77;;;;;;;14.70;100.00;101781.94;10527105;28;20081;-75
2023/04/29 14:42:57;;;;;;;13.82;8.35;;;;;;;15.24;100.00;101792.22;10526712;28;20051;-75
2023/04/29 14:47:58;;;;;;;11.85;10.05;;;;;;;15.31;100.00;101795.09;10529428;28;20128;-76
2023/04/29 14:53:00;;;;;;;13.68;9.48;;;;;;;15.61;100.00;101798.16;10527214;28;20032;-75
2023/04/29 14:58:03;;;;;;;;;;;;;;;15.88;100.00;101792.25;10520648;28;20470;-74
2023/04/29 15:03:04;;;;;;;12.20;8.68;;;;;;;15.35;100.00;101794.41;10527616;28;19927;-75
2023/04/29 15:08:04;;;;;;;13.63;8.23;;;;;;;14.78;100.00;101795.44;10528074;28;20032;-75
2023/04/29 15:13:05;;;;;;;20.27;9.15;;;;;;;14.36;100.00;101797.03;10523597;28;20389;-76
2023/04/29 15:18:07;;;;;;;12.15;8.60;;;;;;;14.10;100.00;101791.44;10512025;28;20131;-77
2023/04/29 15:23:08;;;;;;;13.93;8.98;;;;;;;14.12;100.00;101809.03;10512280;28;20504;-77
2023/04/29 15:28:08;;;;;;;15.57;9.30;;;;;;;14.16;100.00;101808.34;10471826;28;20032;-79
2023/04/29 15:33:10;;;;;;;15.35;9.75;;;;;;;14.38;100.00;101805.03;10488415;28;20532;-76
2023/04/29 15:38:11;;;;;;;13.07;8.10;;;;;;;14.72;100.00;101798.72;10519613;28;20036;-80
2023/04/29 15:43:12;;;;;;;8.77;7.65;;;;;;;15.03;100.00;101805.38;10516128;28;20036;-75
2023/04/29 15:48:12;;;;;;;13.93;8.43;;;;;;;15.04;100.00;101806.25;10509149;28;20055;-74
2023/04/29 15:53:13;;;;;;;9.55;6.28;;;;;;;14.88;100.00;101799.41;10512925;28;20417;-75
2023/04/29 15:58:13;;;;;;;18.40;7.40;;;;;;;14.52;100.00;101809.22;10522792;28;20066;-74
2023/04/29 16:03:14;;;;;;;11.70;8.05;;;;;;;14.02;100.00;101807.69;10519112;28;20581;-75
2023/04/29 16:08:15;;;;;;;10.55;7.20;;;;;;;14.04;100.00;101808.69;10513544;28;20119;-76
2023/04/29 16:13:15;;;;;;;12.45;6.63;;;;;;;14.24;100.00;101809.63;10522009;28;20398;-76
2023/04/29 16:18:16;;;;;;;10.45;6.85;;;;;;;14.72;100.00;101806.63;10522943;28;20135;-75
2023/04/29 16:23:17;;;;;;;11.15;7.22;;;;;;;15.48;100.00;101803.75;10519336;28;20043;-75
2023/04/29 16:28:17;;;;;;;11.02;7.05;;;;;;;15.77;100.00;101809.34;10514815;28;20402;-76
2023/04/29 16:33:18;;;;;;;8.98;6.00;;;;;;;15.38;97.19;101813.00;10522613;28;20032;-76
2023/04/29 16:38:18;;;;;;;11.48;6.13;;;;;;;15.42;100.00;101814.94;10522631;28;20105;-75
2023/04/29 16:43:19;;;;;;;12.88;7.60;;;;;;;15.23;100.00;101819.41;10522532;28;20400;-75
2023/04/29 16:48:19;;;;;;;12.07;8.00;;;;;;;15.10;100.00;101814.44;10525506;28;20059;-75
2023/04/29 16:53:20;;;;;;;10.60;7.18;;;;;;;14.88;100.00;101818.75;10526349;28;20067;-75
2023/04/29 16:58:21;;;;;;;13.25;6.57;;;;;;;14.83;100.00;101804.47;10521535;28;20063;-75
2023/04/29 17:03:22;;;;;;;6.20;4.43;;;;;;;14.68;100.00;101808.16;10531450;28;20044;-75
2023/04/29 17:08:23;;;;;;;9.63;5.78;;;;;;;14.35;100.00;101824.19;10506392;28;20048;-75
2023/04/29 17:13:23;;;;;;;9.20;4.63;;;;;;;14.34;100.00;101825.03;10508348;28;20131;-76
2023/04/29 17:18:24;;;;;;;8.70;5.88;;;;;;;14.23;100.00;101823.63;10494878;28;20127;-77
2023/04/29 17:23:25;;;;;;;8.63;5.07;;;;;;;14.02;100.00;101818.22;10527034;28;20048;-76
2023/04/29 17:28:26;;;;;;;9.82;6.38;;;;;;;13.83;100.00;101822.59;10525486;28;20115;-75
2023/04/29 17:33:33;;;;;;;7.63;5.75;;;;;;;13.71;100.00;101819.34;10528488;28;20489;-75
2023/04/29 17:38:34;;;;;;;8.65;5.45;;;;;;;13.79;100.00;101816.25;10509434;28;20376;-75
2023/04/29 17:43:35;;;;;;;11.82;6.28;;;;;;;13.62;100.00;101818.06;10526579;28;20075;-76
2023/04/29 17:48:36;;;;;;;9.80;5.97;;;;;;;13.44;100.00;101820.66;10526359;28;20044;-75
2023/04/29 17:53:37;;;;;;;10.20;7.63;;;;;;;13.38;100.00;101822.94;10529545;28;20424;-75
2023/04/29 17:58:37;;;;;;;11.65;7.28;;;;;;;13.19;100.00;101815.81;10524088;28;20062;-75
2023/04/29 18:03:38;;;;;;;10.63;6.53;;;;;;;13.04;100.00;101822.09;10488076;28;20040;-75
2023/04/29 18:08:38;;;;;;;10.05;7.60;;;;;;;12.97;100.00;101825.22;10469722;28;20551;-76
2023/04/29 18:13:40;;;;;;;11.57;7.57;;;;;;;12.72;100.00;101826.53;10469085;28;20068;-76
2023/04/29 18:18:40;;;;;;;12.02;8.00;;;;;;;12.52;100.00;101828.03;10482795;28;20039;-75
2023/04/29 18:23:41;;;;;;;11.68;7.25;;;;;;;12.41;100.00;101831.78;10526874;28;20484;-76
2023/04/29 18:28:42;;;;;;;13.43;6.93;;;;;;;12.42;100.00;101831.91;10528590;28;20034;-76
2023/04/29 18:33:43;;;;;;;12.02;7.03;;;;;;;12.29;100.00;101830.28;10528566;28;20123;-76
2023/04/29 18:38:43;;;;;;;8.93;5.28;;;;;;;11.96;100.00;101843.28;10525626;28;20539;-77
2023/04/29 18:43:44;;;;;;;10.00;7.03;;;;;;;11.67;100.00;101839.84;10526984;28;20177;-76
2023/04/29 18:48:45;;;;;;;8.45;5.22;;;;;;;11.44;100.00;101842.03;10526383;28;20055;-81
2023/04/29 18:53:45;;;;;;;9.32;5.70;;;;;;;11.27;100.00;101837.47;10528135;28;20146;-75
2023/04/29 18:58:45;;;;;;;7.70;5.00;;;;;;;11.19;100.00;101843.97;10527100;28;20062;-74
2023/04/29 19:03:46;;;;;;;7.55;5.28;;;;;;;11.10;100.00;101853.09;10526994;28;20182;-75
2023/04/29 19:08:46;;;;;;;8.25;4.35;;;;;;;10.96;100.00;101861.81;10525189;28;20123;-74
2023/04/29 19:13:47;;;;;;;7.53;4.30;;;;;;;10.73;100.00;101869.13;10520760;28;20135;-74
2023/04/29 19:18:48;;;;;;;13.50;5.07;;;;;;;10.43;100.00;101866.38;10524065;28;20039;-75
2023/04/29 19:23:48;;;;;;;9.95;4.80;;;;;;;10.03;100.00;101880.38;10520978;28;20044;-75
2023/04/29 19:28:48;;;;;;;7.72;5.35;;;;;;;9.60;100.00;101883.59;10525719;28;20387;-75
2023/04/29 19:33:51;;;;;;;9.55;4.43;;;;;;;9.17;100.00;101876.34;10490498;28;20068;-74
2023/04/29 19:38:51;;;;;;;;;;;;;;;8.86;100.00;101892.47;10517811;28;20040;-74
2023/04/29 19:43:52;;;;;;;10.27;6.20;;;;;;;8.54;100.00;101883.25;10523374;28;19985;-75
2023/04/29 19:48:52;;;;;;;12.68;8.00;;;;;;;8.33;100.00;101895.59;10502543;28;20131;-74
2023/04/29 19:53:55;;;;;;;11.43;7.30;;;;;;;8.18;100.00;101892.78;10522250;28;20131;-74
2023/04/29 19:58:55;;;;;;;13.77;7.88;;;;;;;8.11;100.00;101901.81;10524128;28;20043;-74
2023/04/29 20:03:56;;;;;;;21.38;8.00;;;;;;;8.19;100.00;101907.63;10495376;28;20140;-74
2023/04/29 20:08:57;;;;;;;11.38;7.35;;;;;;;8.21;100.00;101906.03;10518192;28;20035;-74
2023/04/29 20:13:57;;;;;;;11.38;8.52;;;;;;;8.17;100.00;101914.44;10493694;28;20060;-75
2023/04/29 20:18:58;;;;;;;11.60;8.20;;;;;;;7.98;100.00;101918.28;10504373;28;20083;-74
2023/04/29 20:23:58;;;;;;;20.83;10.05;;;;;;;7.77;100.00;101920.16;10511298;28;20119;-77
2023/04/29 20:28:59;;;;;;;14.40;9.32;;;;;;;7.66;100.00;101918.44;10535355;28;20043;-75
2023/04/29 20:34:00;;;;;;;19.73;9.45;;;;;;;7.58;100.00;101920.47;10508507;28;20119;-74
2023/04/29 20:39:00;;;;;;;11.32;8.32;;;;;;;7.48;100.00;101931.84;10532698;28;20519;-75
2023/04/29 20:44:01;;;;;;;15.63;12.57;;;;;;;7.42;100.00;101949.63;10533317;28;20499;-75
2023/04/29 20:49:02;;;;;;;14.52;9.75;;;;;;;7.36;100.00;101950.06;10538152;28;20609;-75
2023/04/29 20:54:02;;;;;;;12.18;9.32;;;;;;;7.44;100.00;101964.59;10516612;28;20067;-74
2023/04/29 20:59:03;;;;;;;12.40;10.50;;;;;;;7.64;100.00;101967.84;10537727;28;20529;-75
2023/04/29 21:04:04;;;;;;;17.08;10.57;;;;;;;7.80;100.00;101967.28;10536469;28;20116;-74
2023/04/29 21:09:04;;;;;;;15.75;11.63;;;;;;;7.89;100.00;101973.22;10535273;28;20036;-75
2023/04/29 21:14:05;;;;;;;16.08;13.15;;;;;;;7.97;100.00;101973.81;10529103;28;20066;-76
2023/04/29 21:19:05;;;;;;;19.58;11.48;;;;;;;8.00;100.00;101970.50;10535363;28;20499;-75
2023/04/29 21:24:06;;;;;;;12.75;9.45;;;;;;;7.98;100.00;101969.50;10536834;28;20040;-74
2023/04/29 21:29:06;;;;;;;17.20;10.93;;;;;;;7.98;100.00;101975.63;10525557;28;20032;-76
2023/04/29 21:34:07;;;;;;;23.88;11.63;;;;;;;8.03;100.00;101976.88;10535872;28;20040;-76
2023/04/29 21:39:08;;;;;;;18.23;11.82;;;;;;;8.09;100.00;101981.63;10533901;28;20488;-74
2023/04/29 21:44:09;;;;;;;16.65;11.55;;;;;;;8.44;100.00;101977.25;10529715;28;20040;-75
2023/04/29 21:49:09;;;;;;;11.45;7.88;;;;;;;8.79;100.00;101969.44;10530988;28;20028;-75
2023/04/29 21:54:10;;;;;;;13.63;7.40;;;;;;;9.01;100.00;101967.47;10527032;28;20043;-74
2023/04/29 21:59:10;;;;;;;14.73;8.75;;;;;;;9.08;100.00;101961.91;10511893;28;20074;-75
2023/04/29 22:04:11;;;;;;;12.60;6.90;;;;;;;8.93;100.00;101962.59;10528686;28;20429;-74
2023/04/29 22:09:11;;;;;;;15.07;8.73;;;;;;;8.63;100.00;101975.25;10512208;28;20032;-74
2023/04/29 22:14:12;;;;;;;11.57;7.55;;;;;;;8.40;100.00;101983.94;10511350;28;20059;-74
2023/04/29 22:19:12;;;;;;;11.52;7.03;;;;;;;8.21;100.00;101981.66;10527130;28;20047;-74
2023/04/29 22:24:13;;;;;;;10.63;6.72;;;;;;;7.97;100.00;101984.25;10519444;28;20048;-76
2023/04/29 22:29:13;;;;;;;13.07;8.00;;;;;;;7.83;100.00;101990.09;10510700;28;20127;-75
2023/04/29 22:34:14;;;;;;;13.93;7.53;;;;;;;7.70;100.00;101999.56;10514316;28;20456;-76